Time;durP1;ratioP1;P1;durP2;ratioP2;P2;SDS_P1;SDS_P2;PMS_P1;PMS_P2;Temp;Humidity;BMP_temperature;BMP_pressure;BME280_temperature;BME280_humidity;BME280_pressure;Samples;Min_cycle;Max_cycle;Signal;HPM_P1;HPM_P2
2023/11/11 00:01:58;;;;;;;;;;;10.70;79.90;;;;;;5112629;28;19919;-68
2023/11/11 00:04:24;;;;;;;;;;;10.70;79.90;;;;;;5114323;28;19912;-70
2023/11/11 00:06:51;;;;;;;;;;;10.70;80.50;;;;;;5112960;28;19988;-70
2023/11/11 00:09:18;;;;;;;;;;;10.70;80.60;;;;;;5112546;28;19912;-68
2023/11/11 00:11:46;;;;;;;;;;;10.60;80.50;;;;;;5112529;28;20376;-68
2023/11/11 00:14:13;;;;;;;;;;;10.70;80.60;;;;;;5112921;28;19950;-70
2023/11/11 00:16:39;;;;;;;;;;;10.60;80.60;;;;;;5095816;28;19920;-70
2023/11/11 00:19:06;;;;;;;;;;;10.70;81.00;;;;;;5112930;28;19911;-69
2023/11/11 00:24:19;;;;;;;;;;;10.70;81.10;;;;;;5112749;28;19933;-69
2023/11/11 00:26:48;;;;;;;;;;;10.70;81.30;;;;;;5112563;28;19920;-69
2023/11/11 00:29:16;;;;;;;;;;;10.60;81.20;;;;;;5112743;28;19918;-68
2023/11/11 00:32:03;;;;;;;;;;;10.60;81.30;;;;;;5111875;28;19919;-70
2023/11/11 00:34:29;;;;;;;;;;;10.60;81.40;;;;;;5113850;28;20002;-70
2023/11/11 00:36:55;;;;;;;;;;;10.60;81.50;;;;;;5112170;28;19919;-69
2023/11/11 00:39:21;;;;;;;;;;;10.60;81.40;;;;;;5095174;28;19944;-68
2023/11/11 00:41:47;;;;;;;;;;;10.60;81.30;;;;;;5111815;28;19994;-70
2023/11/11 00:44:13;;;;;;;;;;;10.70;81.40;;;;;;5113587;28;19911;-70
2023/11/11 00:46:40;;;;;;;;;;;10.70;81.30;;;;;;5112157;28;19926;-68
2023/11/11 00:49:06;;;;;;;;;;;10.70;81.10;;;;;;5113492;28;19912;-70
2023/11/11 00:51:52;;;;;;;;;;;10.70;81.10;;;;;;5093923;28;20369;-70
2023/11/11 00:54:18;;;;;;;;;;;10.70;81.10;;;;;;5112017;28;20253;-69
2023/11/11 00:56:44;;;;;;;;;;;10.70;81.10;;;;;;5112262;28;19924;-68
2023/11/11 00:59:10;;;;;;;;;;;10.70;81.10;;;;;;5113584;28;19998;-69
2023/11/11 01:01:36;;;;;;;;;;;10.70;81.20;;;;;;5112974;28;20002;-69
2023/11/11 01:04:03;;;;;;;;;;;10.70;81.20;;;;;;5113446;28;20192;-70
2023/11/11 01:06:29;;;;;;;;;;;10.70;81.00;;;;;;5113439;28;19919;-70
2023/11/11 01:08:55;;;;;;;;;;;10.70;81.10;;;;;;5094765;28;19919;-70
2023/11/11 01:11:21;;;;;;;;;;;10.70;80.50;;;;;;5112754;28;19923;-68
2023/11/11 01:13:48;;;;;;;;;;;10.70;81.20;;;;;;5112145;28;19911;-70
2023/11/11 01:16:15;;;;;;;;;;;10.70;81.20;;;;;;5112002;28;19920;-69
2023/11/11 01:18:41;;;;;;;;;;;10.70;81.10;;;;;;5095076;28;20284;-68
2023/11/11 01:21:07;;;;;;;;;;;10.70;81.10;;;;;;5112534;28;19945;-69
2023/11/11 01:23:33;;;;;;;;;;;10.70;81.10;;;;;;5113087;28;19918;-69
2023/11/11 01:26:01;;;;;;;;;;;10.70;81.00;;;;;;5111968;28;20262;-69
2023/11/11 01:28:29;;;;;;;;;;;10.70;81.10;;;;;;5111823;28;19915;-70
2023/11/11 01:30:55;;;;;;;;;;;10.60;80.90;;;;;;5111446;28;19920;-70
2023/11/11 01:33:22;;;;;;;;;;;10.70;81.00;;;;;;5111784;28;19962;-69
2023/11/11 01:38:32;;;;;;;;;;;10.70;81.00;;;;;;5111929;28;19922;-68
2023/11/11 01:40:58;;;;;;;;;;;10.70;80.90;;;;;;5112433;28;20209;-69
2023/11/11 01:43:24;;;;;;;;;;;10.80;80.80;;;;;;5112750;28;19915;-69
2023/11/11 01:45:52;;;;;;;;;;;10.80;80.80;;;;;;5111727;28;20002;-70
2023/11/11 01:48:17;;;;;;;;;;;10.80;80.50;;;;;;5111583;28;19911;-69
2023/11/11 01:50:44;;;;;;;;;;;10.80;80.70;;;;;;5112365;28;19988;-70
2023/11/11 01:53:11;;;;;;;;;;;10.80;80.40;;;;;;5113040;28;20281;-70
2023/11/11 01:55:38;;;;;;;;;;;10.80;80.30;;;;;;5094658;28;20014;-70
2023/11/11 01:58:04;;;;;;;;;;;10.90;80.40;;;;;;5111661;28;19912;-70
2023/11/11 02:00:48;;;;;;;;;;;10.90;80.60;;;;;;5112201;28;19916;-68
2023/11/11 02:03:14;;;;;;;;;;;10.90;80.40;;;;;;5112815;28;20015;-69
2023/11/11 02:05:42;;;;;;;;;;;10.90;80.40;;;;;;5115488;28;20010;-70
2023/11/11 02:08:09;;;;;;;;;;;11.00;80.50;;;;;;5098504;28;20023;-69
2023/11/11 02:10:36;;;;;;;;;;;10.90;80.30;;;;;;5115675;28;19950;-68
2023/11/11 02:13:02;;;;;;;;;;;10.90;79.90;;;;;;5115630;28;19916;-70
2023/11/11 02:15:28;;;;;;;;;;;10.90;80.30;;;;;;5116376;28;19966;-70
2023/11/11 02:17:59;;;;;;;;;;;10.90;80.30;;;;;;5115103;28;19920;-70
2023/11/11 02:20:25;;;;;;;;;;;11.00;80.40;;;;;;5114405;27;20322;-68
2023/11/11 02:22:51;;;;;;;;;;;11.00;80.40;;;;;;5116276;28;19926;-70
2023/11/11 02:25:17;;;;;;;;;;;10.90;80.50;;;;;;5116229;28;19912;-69
2023/11/11 02:27:45;;;;;;;;;;;10.90;80.60;;;;;;5114980;28;20063;-68
2023/11/11 02:30:12;;;;;;;;;;;10.90;80.70;;;;;;5115527;28;19972;-69
2023/11/11 02:32:38;;;;;;;;;;;10.90;80.80;;;;;;5116543;28;20362;-68
2023/11/11 02:35:04;;;;;;;;;;;10.80;80.20;;;;;;5116092;28;20292;-70
2023/11/11 02:37:30;;;;;;;;;;;10.80;80.80;;;;;;5114929;28;19920;-68
2023/11/11 02:39:56;;;;;;;;;;;10.80;81.00;;;;;;5114730;28;19946;-68
2023/11/11 02:42:22;;;;;;;;;;;10.80;81.90;;;;;;5115713;27;19923;-70
2023/11/11 02:44:48;;;;;;;;;;;10.80;81.00;;;;;;5114721;28;19918;-68
2023/11/11 02:47:14;;;;;;;;;;;10.80;81.10;;;;;;5114672;28;19924;-68
2023/11/11 02:49:40;;;;;;;;;;;10.80;81.10;;;;;;5115782;27;20289;-69
2023/11/11 02:52:06;;;;;;;;;;;10.70;81.20;;;;;;5114085;28;19962;-69
2023/11/11 02:54:32;;;;;;;;;;;10.80;81.20;;;;;;5115729;28;19938;-69
2023/11/11 02:56:58;;;;;;;;;;;10.80;81.30;;;;;;5115790;27;19926;-70
2023/11/11 02:59:24;;;;;;;;;;;10.80;81.30;;;;;;5097347;28;19911;-70
2023/11/11 03:04:37;;;;;;;;;;;10.70;82.30;;;;;;5114581;28;19934;-70
2023/11/11 03:07:03;;;;;;;;;;;10.70;81.30;;;;;;5113927;28;19926;-70
2023/11/11 03:09:29;;;;;;;;;;;10.70;81.40;;;;;;5113897;28;20329;-70
2023/11/11 03:11:55;;;;;;;;;;;10.60;81.50;;;;;;5113667;28;19942;-69
2023/11/11 03:14:25;;;;;;;;;;;10.60;81.60;;;;;;5114751;28;20002;-69
2023/11/11 03:16:51;;;;;;;;;;;10.60;81.80;;;;;;5114140;28;19924;-68
2023/11/11 03:19:17;;;;;;;;;;;10.50;81.90;;;;;;5115259;28;19912;-68
2023/11/11 03:21:43;;;;;;;;;;;10.50;82.20;;;;;;5113280;28;19919;-68
2023/11/11 03:24:09;;;;;;;;;;;10.50;82.20;;;;;;5096935;28;19911;-70
2023/11/11 03:26:35;;;;;;;;;;;10.50;82.20;;;;;;5115220;28;19928;-68
2023/11/11 03:29:01;;;;;;;;;;;10.50;81.60;;;;;;5115003;28;19935;-69
2023/11/11 03:31:27;;;;;;;;;;;10.50;81.70;;;;;;5113167;28;19985;-68
2023/11/11 03:33:53;;;;;;;;;;;10.50;82.20;;;;;;5096691;28;19912;-70
2023/11/11 03:36:19;;;;;;;;;;;10.50;82.30;;;;;;5114864;28;20013;-68
2023/11/11 03:38:45;;;;;;;;;;;10.40;82.20;;;;;;5114597;27;19915;-69
2023/11/11 03:41:11;;;;;;;;;;;10.50;82.20;;;;;;5114060;28;19945;-68
2023/11/11 03:43:37;;;;;;;;;;;10.40;82.20;;;;;;5114738;28;20026;-69
2023/11/11 03:46:03;;;;;;;;;;;10.40;82.20;;;;;;5114714;28;19919;-70
2023/11/11 03:48:29;;;;;;;;;;;10.40;82.10;;;;;;5096320;28;20271;-70
2023/11/11 03:50:55;;;;;;;;;;;10.40;82.10;;;;;;5112654;28;19922;-70
2023/11/11 03:53:22;;;;;;;;;;;10.30;82.20;;;;;;5113033;28;20000;-70
2023/11/11 03:55:48;;;;;;;;;;;10.40;82.00;;;;;;5113295;28;19926;-68
2023/11/11 03:58:14;;;;;;;;;;;10.30;81.80;;;;;;5113309;28;19961;-69
2023/11/11 04:00:44;;;;;;;;;;;10.30;81.70;;;;;;5095539;28;19919;-70
2023/11/11 04:03:11;;;;;;;;;;;10.30;81.70;;;;;;5114131;28;19916;-70
2023/11/11 04:05:37;;;;;;;;;;;10.30;81.50;;;;;;5112942;28;20003;-69
2023/11/11 04:08:03;;;;;;;;;;;10.30;81.50;;;;;;5096053;28;19915;-69
2023/11/11 04:10:30;;;;;;;;;;;10.30;81.30;;;;;;5113350;28;19981;-69
2023/11/11 04:13:00;;;;;;;;;;;10.20;80.70;;;;;;5112964;28;19969;-68
2023/11/11 04:15:26;;;;;;;;;;;10.20;80.80;;;;;;5114100;28;20342;-68
2023/11/11 04:17:52;;;;;;;;;;;10.20;80.70;;;;;;5112915;28;19915;-70
2023/11/11 04:20:18;;;;;;;;;;;10.20;81.30;;;;;;5112229;28;19916;-70
2023/11/11 04:22:44;;;;;;;;;;;10.20;81.20;;;;;;5114367;28;19964;-69
2023/11/11 04:25:11;;;;;;;;;;;10.10;81.30;;;;;;5112829;28;20319;-68
2023/11/11 04:27:38;;;;;;;;;;;10.10;81.00;;;;;;5111914;28;19916;-70
2023/11/11 04:30:06;;;;;;;;;;;10.00;80.70;;;;;;5111990;28;19946;-68
2023/11/11 04:32:33;;;;;;;;;;;10.00;80.50;;;;;;5114184;28;19923;-69
2023/11/11 04:34:59;;;;;;;;;;;10.00;80.60;;;;;;5095574;28;19922;-68
2023/11/11 04:37:26;;;;;;;;;;;10.00;80.80;;;;;;5095393;28;19971;-68
2023/11/11 04:39:56;;;;;;;;;;;9.90;80.30;;;;;;5112217;28;20326;-68
2023/11/11 04:42:21;;;;;;;;;;;9.90;80.90;;;;;;5113340;28;19962;-70
2023/11/11 04:44:48;;;;;;;;;;;9.90;80.30;;;;;;5112384;28;20053;-70
2023/11/11 04:47:14;;;;;;;;;;;9.80;80.00;;;;;;5112399;28;19974;-68
2023/11/11 04:49:40;;;;;;;;;;;9.80;79.20;;;;;;5112285;28;19912;-70
2023/11/11 04:52:06;;;;;;;;;;;9.70;77.90;;;;;;5112779;28;20019;-69
2023/11/11 04:54:32;;;;;;;;;;;9.70;77.70;;;;;;5113470;28;20133;-68
2023/11/11 04:57:01;;;;;;;;;;;9.70;77.60;;;;;;5112163;28;19976;-70
2023/11/11 04:59:27;;;;;;;;;;;9.60;77.10;;;;;;5112253;28;19966;-68
2023/11/11 05:01:54;;;;;;;;;;;9.60;75.90;;;;;;5111541;28;20002;-70
2023/11/11 05:04:20;;;;;;;;;;;9.50;76.40;;;;;;5113314;28;19957;-69
2023/11/11 05:06:46;;;;;;;;;;;9.50;76.40;;;;;;5113565;28;19920;-69
2023/11/11 05:09:12;;;;;;;;;;;9.40;75.50;;;;;;5111871;28;19922;-69
2023/11/11 05:11:40;;;;;;;;;;;9.40;76.10;;;;;;5112916;28;19920;-68
2023/11/11 05:14:09;;;;;;;;;;;9.40;75.60;;;;;;5112220;28;19916;-70
2023/11/11 05:16:39;;;;;;;;;;;9.40;75.10;;;;;;5113397;28;20345;-69
2023/11/11 05:19:24;;;;;;;;;;;9.30;75.20;;;;;;5112254;28;19958;-70
2023/11/11 05:21:50;;;;;;;;;;;9.30;74.30;;;;;;5112396;28;20002;-70
2023/11/11 05:24:16;;;;;;;;;;;9.30;74.80;;;;;;5112025;28;20010;-70
2023/11/11 05:26:42;;;;;;;;;;;9.30;74.70;;;;;;5113155;28;19916;-70
2023/11/11 05:29:09;;;;;;;;;;;9.20;74.70;;;;;;5094953;28;19931;-69
2023/11/11 05:31:36;;;;;;;;;;;9.20;74.50;;;;;;5111350;28;19920;-70
2023/11/11 05:34:03;;;;;;;;;;;9.20;74.40;;;;;;5111959;28;20014;-70
2023/11/11 05:36:29;;;;;;;;;;;9.20;73.90;;;;;;5113125;28;19915;-68
2023/11/11 05:38:54;;;;;;;;;;;9.20;74.40;;;;;;5114047;28;19935;-69
2023/11/11 05:41:22;;;;;;;;;;;9.20;74.00;;;;;;5115322;28;20003;-68
2023/11/11 05:43:48;;;;;;;;;;;9.20;73.40;;;;;;5115986;28;19984;-69
2023/11/11 05:46:15;;;;;;;;;;;9.20;73.30;;;;;;5115830;28;20356;-68
2023/11/11 05:48:44;;;;;;;;;;;9.10;73.40;;;;;;5115578;28;19994;-68
2023/11/11 05:51:10;;;;;;;;;;;9.10;73.50;;;;;;5114944;28;20390;-69
2023/11/11 05:53:36;;;;;;;;;;;9.20;72.90;;;;;;5115667;28;19923;-70
2023/11/11 05:56:04;;;;;;;;;;;9.20;73.60;;;;;;5117208;28;20014;-69
2023/11/11 05:58:30;;;;;;;;;;;9.20;73.30;;;;;;5115619;28;20344;-70
2023/11/11 06:00:58;;;;;;;;;;;9.10;73.20;;;;;;5097768;28;19972;-68
2023/11/11 06:03:24;;;;;;;;;;;9.10;72.40;;;;;;5115490;28;19912;-69
2023/11/11 06:05:50;;;;;;;;;;;9.10;72.80;;;;;;5116566;28;19920;-68
2023/11/11 06:08:16;;;;;;;;;;;9.10;72.90;;;;;;5116187;28;19918;-69
2023/11/11 06:10:43;;;;;;;;;;;9.10;72.40;;;;;;5115641;28;19923;-68
2023/11/11 06:13:09;;;;;;;;;;;9.10;72.10;;;;;;5116464;28;19955;-70
2023/11/11 06:15:36;;;;;;;;;;;9.10;72.00;;;;;;5115294;28;19912;-68
2023/11/11 06:18:02;;;;;;;;;;;9.10;72.00;;;;;;5115229;28;19926;-69
2023/11/11 06:20:28;;;;;;;;;;;9.10;71.80;;;;;;5097225;28;19920;-70
2023/11/11 06:22:55;;;;;;;;;;;9.10;71.40;;;;;;5098062;28;19970;-70
2023/11/11 06:25:21;;;;;;;;;;;9.10;71.60;;;;;;5115145;28;19995;-69
2023/11/11 06:27:48;;;;;;;;;;;9.10;70.90;;;;;;5116672;28;20367;-69
2023/11/11 06:30:16;;;;;;;;;;;9.10;70.50;;;;;;5114333;28;19951;-70
2023/11/11 06:32:43;;;;;;;;;;;9.10;71.00;;;;;;5115019;28;19916;-68
2023/11/11 06:35:12;;;;;;;;;;;9.10;70.30;;;;;;5114754;28;19915;-70
2023/11/11 06:37:39;;;;;;;;;;;9.00;70.00;;;;;;5115047;28;20432;-68
2023/11/11 06:40:07;;;;;;;;;;;9.10;69.90;;;;;;5114109;28;19923;-69
2023/11/11 06:42:33;;;;;;;;;;;9.10;69.80;;;;;;5115658;28;19919;-70
2023/11/11 06:44:59;;;;;;;;;;;9.10;70.00;;;;;;5097833;28;20373;-70
2023/11/11 06:47:25;;;;;;;;;;;9.10;70.00;;;;;;5114660;28;19916;-70
2023/11/11 06:49:51;;;;;;;;;;;9.20;69.90;;;;;;5113435;28;19924;-70
2023/11/11 06:52:17;;;;;;;;;;;9.20;69.80;;;;;;5097056;28;20014;-69
2023/11/11 06:54:43;;;;;;;;;;;9.10;68.50;;;;;;5114547;28;19915;-70
2023/11/11 06:57:09;;;;;;;;;;;9.10;68.50;;;;;;5114478;28;20373;-69
2023/11/11 06:59:37;;;;;;;;;;;9.10;68.20;;;;;;5115633;28;19919;-70
2023/11/11 07:02:04;;;;;;;;;;;9.00;68.20;;;;;;5114949;28;19923;-70
2023/11/11 07:04:30;;;;;;;;;;;9.10;68.70;;;;;;5115469;28;19918;-70
2023/11/11 07:06:57;;;;;;;;;;;9.00;68.30;;;;;;5114226;28;19924;-69
2023/11/11 07:09:23;;;;;;;;;;;9.00;69.00;;;;;;5114089;28;20425;-69
2023/11/11 07:11:49;;;;;;;;;;;8.90;68.90;;;;;;5115082;27;20347;-70
2023/11/11 07:14:15;;;;;;;;;;;9.00;68.70;;;;;;5115600;28;19918;-69
2023/11/11 07:16:41;;;;;;;;;;;8.90;69.60;;;;;;5113970;28;20365;-70
2023/11/11 07:19:07;;;;;;;;;;;8.90;69.40;;;;;;5114044;28;19911;-70
2023/11/11 07:21:34;;;;;;;;;;;8.90;69.50;;;;;;5114662;28;20364;-70
2023/11/11 07:23:59;;;;;;;;;;;9.00;69.30;;;;;;5113934;28;19912;-69
2023/11/11 07:26:25;;;;;;;;;;;9.00;69.90;;;;;;5113684;28;20394;-69
2023/11/11 07:28:51;;;;;;;;;;;9.10;70.20;;;;;;5113788;28;19919;-69
2023/11/11 07:31:19;;;;;;;;;;;9.10;70.30;;;;;;5113201;28;20014;-70
2023/11/11 07:33:45;;;;;;;;;;;9.20;70.30;;;;;;5114984;28;20386;-69
2023/11/11 07:36:12;;;;;;;;;;;9.20;70.30;;;;;;5115077;28;19962;-68
2023/11/11 07:38:40;;;;;;;;;;;9.10;70.30;;;;;;5096310;28;19911;-69
2023/11/11 07:41:07;;;;;;;;;;;9.10;70.30;;;;;;5112823;28;19923;-69
2023/11/11 07:43:33;;;;;;;;;;;9.10;70.20;;;;;;5096595;28;20296;-70
2023/11/11 07:46:00;;;;;;;;;;;9.20;70.20;;;;;;5113363;28;19967;-69
2023/11/11 07:48:44;;;;;;;;;;;9.20;70.40;;;;;;5113365;28;19955;-68
2023/11/11 07:51:11;;;;;;;;;;;9.30;70.40;;;;;;5114293;28;20346;-70
2023/11/11 07:53:36;;;;;;;;;;;9.20;69.70;;;;;;5113083;28;19961;-69
2023/11/11 07:56:04;;;;;;;;;;;9.20;70.30;;;;;;5113182;28;19924;-70
2023/11/11 07:58:30;;;;;;;;;;;9.30;69.70;;;;;;5113279;28;20357;-70
2023/11/11 08:00:56;;;;;;;;;;;9.30;70.30;;;;;;5113709;28;20384;-70
2023/11/11 08:03:24;;;;;;;;;;;9.30;70.70;;;;;;5113002;28;19911;-70
2023/11/11 08:05:51;;;;;;;;;;;9.30;70.50;;;;;;5114261;28;20373;-70
2023/11/11 08:08:17;;;;;;;;;;;9.30;70.80;;;;;;5112801;28;19911;-70
2023/11/11 08:10:45;;;;;;;;;;;9.30;71.00;;;;;;5113617;28;20288;-70
2023/11/11 08:13:11;;;;;;;;;;;9.30;70.90;;;;;;5113009;28;19915;-70
2023/11/11 08:15:36;;;;;;;;;;;9.30;70.30;;;;;;5114060;28;20369;-69
2023/11/11 08:18:03;;;;;;;;;;;9.30;71.20;;;;;;5112856;28;19920;-70
2023/11/11 08:20:29;;;;;;;;;;;9.30;71.10;;;;;;5111951;28;19920;-69
2023/11/11 08:22:55;;;;;;;;;;;9.30;71.30;;;;;;5114047;28;19922;-68
2023/11/11 08:25:22;;;;;;;;;;;9.20;71.20;;;;;;5113910;28;19912;-69
2023/11/11 08:27:50;;;;;;;;;;;9.20;71.10;;;;;;5114117;28;19923;-70
2023/11/11 08:30:16;;;;;;;;;;;9.30;71.30;;;;;;5095208;28;19951;-70
2023/11/11 08:32:42;;;;;;;;;;;9.30;70.70;;;;;;5112843;28;19920;-69
2023/11/11 08:35:15;;;;;;;;;;;9.30;70.60;;;;;;5112506;28;19959;-68
2023/11/11 08:38:00;;;;;;;;;;;9.30;71.40;;;;;;5112766;28;19919;-69
2023/11/11 08:40:26;;;;;;;;;;;9.30;71.70;;;;;;5111957;28;20288;-69
2023/11/11 08:42:52;;;;;;;;;;;9.20;71.60;;;;;;5113624;28;19916;-70
2023/11/11 08:45:18;;;;;;;;;;;9.20;72.20;;;;;;5113608;28;19918;-68
2023/11/11 08:47:44;;;;;;;;;;;9.20;72.40;;;;;;5112681;28;19973;-69
2023/11/11 08:50:11;;;;;;;;;;;9.20;72.40;;;;;;5111829;28;20335;-69
2023/11/11 08:52:57;;;;;;;;;;;9.30;72.30;;;;;;5112480;28;19920;-68
2023/11/11 08:55:23;;;;;;;;;;;9.30;72.20;;;;;;5113417;28;19926;-69
2023/11/11 08:57:50;;;;;;;;;;;9.30;72.10;;;;;;5112374;28;19920;-70
2023/11/11 09:00:16;;;;;;;;;;;9.30;72.20;;;;;;5112839;28;19919;-69
2023/11/11 09:02:42;;;;;;;;;;;9.40;71.40;;;;;;5112419;28;20284;-69
2023/11/11 09:05:09;;;;;;;;;;;9.30;71.10;;;;;;5113183;28;19965;-69
2023/11/11 09:07:35;;;;;;;;;;;9.40;71.20;;;;;;5095402;28;20292;-69
2023/11/11 09:10:20;;;;;;;;;;;9.50;71.80;;;;;;5113158;28;19930;-70
2023/11/11 09:12:48;;;;;;;;;;;9.50;71.60;;;;;;5115735;28;19915;-70
2023/11/11 09:15:16;;;;;;;;;;;9.50;71.80;;;;;;5120064;27;19915;-68
2023/11/11 09:18:01;;;;;;;;;;;9.60;71.50;;;;;;5119084;28;19962;-69
2023/11/11 09:20:29;;;;;;;;;;;9.60;71.40;;;;;;5118226;27;19924;-69
2023/11/11 09:22:56;;;;;;;;;;;9.60;72.30;;;;;;5119992;27;19920;-69
2023/11/11 09:25:22;;;;;;;;;;;9.70;71.10;;;;;;5118757;28;19969;-69
2023/11/11 09:27:48;;;;;;;;;;;9.60;70.00;;;;;;5118973;28;19912;-69
2023/11/11 09:30:17;;;;;;;;;;;9.60;70.70;;;;;;5118104;27;20022;-70
2023/11/11 09:32:44;;;;;;;;;;;9.60;71.40;;;;;;5119160;28;20014;-68
2023/11/11 09:35:28;;;;;;;;;;;9.60;71.80;;;;;;5118702;28;19919;-70
2023/11/11 09:37:55;;;;;;;;;;;9.60;72.00;;;;;;5101599;28;20023;-69
2023/11/11 09:40:21;;;;;;;;;;;9.60;72.80;;;;;;5117927;27;19918;-70
2023/11/11 09:42:47;;;;;;;;;;;9.70;72.90;;;;;;5101473;28;19911;-69
2023/11/11 09:45:14;;;;;;;;;;;9.70;73.20;;;;;;5118595;27;19926;-68
2023/11/11 09:47:42;;;;;;;;;;;9.70;73.20;;;;;;5120270;27;19919;-69
2023/11/11 09:50:10;;;;;;;;;;;9.80;73.20;;;;;;5117931;27;19919;-70
2023/11/11 09:52:37;;;;;;;;;;;9.90;73.10;;;;;;5119507;27;19978;-68
2023/11/11 09:55:04;;;;;;;;;;;10.00;72.90;;;;;;5118763;28;19924;-68
2023/11/11 09:57:32;;;;;;;;;;;10.20;72.60;;;;;;5101553;28;19965;-69
2023/11/11 09:59:58;;;;;;;;;;;10.30;72.10;;;;;;5118636;28;20327;-70
2023/11/11 10:02:25;;;;;;;;;;;10.50;71.80;;;;;;5100854;28;20285;-69
2023/11/11 10:04:52;;;;;;;;;;;10.60;71.00;;;;;;5118350;28;19915;-70
2023/11/11 10:07:21;;;;;;;;;;;10.70;71.70;;;;;;5119791;27;20006;-70
2023/11/11 10:10:08;;;;;;;;;;;10.70;71.10;;;;;;5118178;28;19912;-68
2023/11/11 10:12:36;;;;;;;;;;;10.60;71.60;;;;;;5101316;28;19920;-69
2023/11/11 10:15:04;;;;;;;;;;;10.60;71.50;;;;;;5118560;28;20376;-69
2023/11/11 10:17:35;;;;;;;;;;;10.60;70.60;;;;;;5118224;27;19923;-69
2023/11/11 10:20:02;;;;;;;;;;;10.60;71.10;;;;;;5118492;28;19911;-70
2023/11/11 10:22:28;;;;;;;;;;;10.80;72.30;;;;;;5119393;27;19920;-68
2023/11/11 10:24:56;;;;;;;;;;;11.00;71.70;;;;;;5116211;28;19934;-68
2023/11/11 10:27:22;;;;;;;;;;;11.10;70.80;;;;;;5114857;28;19923;-70
2023/11/11 10:29:47;;;;;;;;;;;11.10;70.40;;;;;;5115114;28;19918;-69
2023/11/11 10:32:15;;;;;;;;;;;11.10;69.70;;;;;;5115959;28;20360;-68
2023/11/11 10:34:41;;;;;;;;;;;11.30;69.90;;;;;;5097834;28;20292;-70
2023/11/11 10:37:07;;;;;;;;;;;11.30;69.20;;;;;;5116189;28;20002;-69
2023/11/11 10:39:34;;;;;;;;;;;11.40;68.60;;;;;;5115805;28;19911;-68
2023/11/11 10:42:18;;;;;;;;;;;11.30;68.40;;;;;;5115815;28;19923;-70
2023/11/11 10:44:44;;;;;;;;;;;11.30;66.50;;;;;;5115830;27;19923;-70
2023/11/11 10:47:11;;;;;;;;;;;11.40;67.70;;;;;;5115638;28;19920;-69
2023/11/11 10:49:37;;;;;;;;;;;11.50;66.50;;;;;;5114627;28;19912;-69
2023/11/11 10:52:06;;;;;;;;;;;11.60;66.70;;;;;;5114037;28;19963;-70
2023/11/11 10:54:32;;;;;;;;;;;11.50;64.60;;;;;;5114347;28;20314;-70
2023/11/11 10:56:58;;;;;;;;;;;11.60;65.40;;;;;;5114675;28;19969;-70
2023/11/11 10:59:26;;;;;;;;;;;11.80;65.00;;;;;;5115652;28;19945;-69
2023/11/11 11:01:54;;;;;;;;;;;11.90;63.90;;;;;;5096816;28;19938;-70
2023/11/11 11:04:24;;;;;;;;;;;12.00;65.00;;;;;;5115515;28;19915;-69
2023/11/11 11:06:55;;;;;;;;;;;12.20;64.20;;;;;;5114714;28;19920;-69
2023/11/11 11:09:43;;;;;;;;;;;12.40;63.20;;;;;;5114139;28;19922;-70
2023/11/11 11:12:47;;;;;;;;;;;12.50;62.30;;;;;;5113691;28;20019;-70
2023/11/11 11:15:15;;;;;;;;;;;12.60;61.60;;;;;;5115319;28;20431;-69
2023/11/11 11:17:47;;;;;;;;;;;12.80;62.40;;;;;;5114424;28;19954;-70
2023/11/11 11:20:18;;;;;;;;;;;13.00;61.00;;;;;;5113465;28;20341;-69
2023/11/11 11:22:44;;;;;;;;;;;13.20;59.70;;;;;;5114349;28;19923;-70
2023/11/11 11:25:50;;;;;;;;;;;13.40;60.20;;;;;;5113790;28;20312;-69
2023/11/11 11:28:34;;;;;;;;;;;13.50;59.00;;;;;;5115058;28;19927;-69
2023/11/11 11:31:03;;;;;;;;;;;13.30;58.80;;;;;;5114583;28;19968;-69
2023/11/11 11:33:39;;;;;;;;;;;13.10;59.10;;;;;;5113591;28;20368;-69
2023/11/11 11:36:25;;;;;;;;;;;13.00;59.40;;;;;;5114493;28;19920;-69
2023/11/11 11:38:51;;;;;;;;;;;13.30;59.20;;;;;;5114700;28;19915;-69
2023/11/11 11:41:38;;;;;;;;;;;13.60;58.50;;;;;;5112950;28;19924;-69
2023/11/11 11:44:06;;;;;;;;;;;13.70;58.70;;;;;;5096742;28;20364;-69
2023/11/11 11:46:31;;;;;;;;;;;14.00;57.00;;;;;;5113531;28;19924;-70
2023/11/11 11:48:57;;;;;;;;;;;14.20;58.10;;;;;;5113432;28;20316;-69
2023/11/11 11:51:24;;;;;;;;;;;14.10;58.10;;;;;;5112753;28;20558;-68
2023/11/11 11:53:53;;;;;;;;;;;14.00;58.00;;;;;;5114520;28;19922;-68
2023/11/11 11:56:32;;;;;;;;;;;14.10;58.30;;;;;;5113296;28;19972;-70
2023/11/11 11:59:02;;;;;;;;;;;14.20;57.90;;;;;;5114567;28;20315;-69
2023/11/11 12:01:30;;;;;;;;;;;14.20;57.20;;;;;;5095970;28;20003;-69
2023/11/11 12:03:58;;;;;;;;;;;14.10;58.20;;;;;;5113117;28;20321;-69
2023/11/11 12:06:26;;;;;;;;;;;13.90;58.30;;;;;;5113114;28;19919;-70
2023/11/11 12:08:54;;;;;;;;;;;14.00;57.90;;;;;;5112817;28;20382;-70
2023/11/11 12:11:39;;;;;;;;;;;14.00;57.00;;;;;;5112510;28;19919;-70
2023/11/11 12:14:05;;;;;;;;;;;14.00;57.20;;;;;;5113061;28;19912;-70
2023/11/11 12:16:47;;;;;;;;;;;13.70;57.70;;;;;;5113005;28;19927;-69
2023/11/11 12:19:14;;;;;;;;;;;13.30;58.20;;;;;;5112844;28;19918;-70
2023/11/11 12:21:42;;;;;;;;;;;13.20;58.60;;;;;;5095127;28;20274;-68
2023/11/11 12:24:29;;;;;;;;;;;14.00;57.20;;;;;;5112722;28;19947;-69
2023/11/11 12:26:57;;;;;;;;;;;14.80;53.60;;;;;;5095838;28;20383;-69
2023/11/11 12:29:23;;;;;;;;;;;15.00;53.60;;;;;;5112541;28;19940;-69
2023/11/11 12:31:51;;;;;;;;;;;15.10;53.70;;;;;;5112166;28;19958;-69
2023/11/11 12:34:35;;;;;;;;;;;16.90;49.70;;;;;;5112833;28;20172;-69
2023/11/11 12:37:01;;;;;;;;;;;17.80;45.20;;;;;;5112688;28;19919;-70
2023/11/11 12:39:27;;;;;;;;;;;17.40;45.90;;;;;;5113341;28;19942;-70
2023/11/11 12:41:54;;;;;;;;;;;16.60;48.00;;;;;;5112000;28;19920;-69
2023/11/11 12:44:21;;;;;;;;;;;15.80;49.90;;;;;;5113550;28;19912;-70
2023/11/11 12:49:33;;;;;;;;;;;14.90;52.80;;;;;;5112406;28;19927;-69
2023/11/11 12:51:58;;;;;;;;;;;14.80;53.90;;;;;;5111741;28;19947;-69
2023/11/11 12:54:44;;;;;;;;;;;14.60;53.70;;;;;;5112268;28;19938;-69
2023/11/11 12:57:11;;;;;;;;;;;14.90;53.40;;;;;;5091987;28;19924;-70
2023/11/11 12:59:52;;;;;;;;;;;14.70;52.70;;;;;;5093109;28;19911;-69
2023/11/11 13:02:18;;;;;;;;;;;14.50;54.30;;;;;;5091452;28;19946;-69
2023/11/11 13:04:45;;;;;;;;;;;14.50;53.90;;;;;;5074834;28;20265;-69
2023/11/11 13:07:26;;;;;;;;;;;15.20;52.80;;;;;;5093259;28;19920;-70
2023/11/11 13:09:52;;;;;;;;;;;17.40;45.90;;;;;;5091571;28;19951;-69
2023/11/11 13:12:18;;;;;;;;;;;19.90;41.80;;;;;;5092656;28;19920;-70
2023/11/11 13:14:44;;;;;;;;;;;21.50;36.70;;;;;;5091654;28;19955;-70
2023/11/11 13:17:10;;;;;;;;;;;21.90;34.70;;;;;;5091750;28;19948;-70
2023/11/11 13:19:39;;;;;;;;;;;22.20;34.10;;;;;;5091705;28;19912;-69
2023/11/11 13:22:08;;;;;;;;;;;22.70;33.40;;;;;;5092677;28;19931;-70
2023/11/11 13:24:38;;;;;;;;;;;24.30;30.40;;;;;;5091653;28;19912;-70
2023/11/11 13:27:04;;;;;;;;;;;25.70;28.30;;;;;;5091554;28;19974;-69
2023/11/11 13:29:30;;;;;;;;;;;26.70;26.40;;;;;;5091640;28;20014;-70
2023/11/11 13:31:57;;;;;;;;;;;26.90;26.30;;;;;;5092439;28;20375;-70
2023/11/11 13:37:11;;;;;;;;;;;26.50;25.90;;;;;;5092902;28;19927;-70
2023/11/11 13:39:37;;;;;;;;;;;27.10;25.70;;;;;;5091333;28;19912;-69
2023/11/11 13:42:15;;;;;;;;;;;26.30;26.00;;;;;;5091977;28;20011;-69
2023/11/11 13:44:41;;;;;;;;;;;25.00;27.60;;;;;;5092714;28;19912;-69
2023/11/11 13:47:08;;;;;;;;;;;24.10;28.60;;;;;;5091568;28;19927;-70
2023/11/11 13:49:34;;;;;;;;;;;23.60;28.90;;;;;;5091441;28;19919;-70
2023/11/11 13:52:00;;;;;;;;;;;22.20;31.80;;;;;;5090825;28;19927;-70
2023/11/11 13:54:26;;;;;;;;;;;21.10;33.30;;;;;;5074516;28;19919;-69
2023/11/11 13:56:53;;;;;;;;;;;19.70;34.70;;;;;;5091469;28;20015;-70
2023/11/11 13:59:19;;;;;;;;;;;18.80;37.20;;;;;;5094093;28;19912;-69
2023/11/11 14:01:45;;;;;;;;;;;18.10;39.20;;;;;;5096042;28;20427;-70
2023/11/11 14:04:12;;;;;;;;;;;17.50;40.10;;;;;;5095554;28;20333;-69
2023/11/11 14:06:38;;;;;;;;;;;16.90;41.60;;;;;;5078132;28;19942;-69
2023/11/11 14:09:05;;;;;;;;;;;16.40;42.80;;;;;;5096112;28;19912;-70
2023/11/11 14:11:32;;;;;;;;;;;16.00;43.90;;;;;;5077526;28;20153;-70
2023/11/11 14:13:58;;;;;;;;;;;15.60;45.20;;;;;;5094930;28;19919;-69
2023/11/11 14:16:24;;;;;;;;;;;15.30;46.00;;;;;;5094936;28;19967;-70
2023/11/11 14:18:50;;;;;;;;;;;15.00;46.80;;;;;;5096021;28;20023;-70
2023/11/11 14:21:16;;;;;;;;;;;14.70;47.60;;;;;;5094190;28;19920;-69
2023/11/11 14:23:42;;;;;;;;;;;14.50;48.80;;;;;;5094719;28;20320;-69
2023/11/11 14:26:09;;;;;;;;;;;14.40;49.10;;;;;;5095883;28;19919;-70
2023/11/11 14:28:35;;;;;;;;;;;14.50;49.40;;;;;;5094619;28;20312;-69
2023/11/11 14:31:01;;;;;;;;;;;14.30;49.90;;;;;;5077135;28;19920;-70
2023/11/11 14:33:29;;;;;;;;;;;14.20;50.80;;;;;;5095742;28;20362;-69
2023/11/11 14:35:56;;;;;;;;;;;14.10;51.30;;;;;;5077853;28;20440;-69
2023/11/11 14:38:22;;;;;;;;;;;13.90;52.10;;;;;;5095589;28;20300;-70
2023/11/11 14:40:48;;;;;;;;;;;13.70;52.60;;;;;;5093544;28;19924;-70